Time;durP1;ratioP1;P1;durP2;ratioP2;P2;SDS_P1;SDS_P2;PMS_P1;PMS_P2;Temp;Humidity;BMP_temperature;BMP_pressure;BME280_temperature;BME280_humidity;BME280_pressure;Samples;Min_cycle;Max_cycle;Signal;HPM_P1;HPM_P2
2021/12/23 02:16:54;;;;;;;3.75;3.55;;;;;;;-1.16;100.00;101505.09;6254424;22;20286;-86
2021/12/23 02:19:20;;;;;;;2.17;2.08;;;;;;;-1.16;100.00;101492.06;6277304;22;20533;-87
2021/12/23 02:21:52;;;;;;;2.85;2.65;;;;;;;-1.21;100.00;101488.50;6278446;22;20000;-87
2021/12/23 02:24:24;;;;;;;3.15;2.95;;;;;;;-1.17;100.00;101466.84;6277962;22;20000;-86
2021/12/23 02:26:52;;;;;;;2.50;2.15;;;;;;;-1.23;100.00;101474.56;6278118;22;20007;-87
2021/12/23 02:29:18;;;;;;;2.50;2.30;;;;;;;-1.24;100.00;101480.63;6276996;22;20078;-85
2021/12/23 02:31:59;;;;;;;3.35;3.05;;;;;;;-1.25;100.00;101475.41;6277664;22;20046;-86
2021/12/23 02:34:25;;;;;;;1.73;1.63;;;;;;;-1.31;100.00;101478.81;6277197;22;20034;-86
2021/12/23 02:37:13;;;;;;;2.50;2.40;;;;;;;-1.28;100.00;101476.25;6277819;22;20416;-86
2021/12/23 02:39:40;;;;;;;2.17;2.08;;;;;;;-1.26;100.00;101478.88;6277796;22;20011;-86
2021/12/23 02:42:20;;;;;;;3.22;3.03;;;;;;;-1.29;100.00;101469.25;6277987;22;20030;-85
2021/12/23 02:44:46;;;;;;;3.00;2.80;;;;;;;-1.27;100.00;101467.56;6277550;22;20035;-86
2021/12/23 02:47:11;;;;;;;2.08;1.98;;;;;;;-1.31;100.00;101477.94;6277739;22;20026;-87
2021/12/23 02:49:50;;;;;;;2.25;2.10;;;;;;;-1.26;100.00;101473.66;6277521;22;20109;-87
2021/12/23 02:52:27;;;;;;;1.95;1.85;;;;;;;-1.25;100.00;101463.25;6278219;22;20061;-86
2021/12/23 02:54:59;;;;;;;3.13;2.92;;;;;;;-1.22;100.00;101459.81;6277757;22;19999;-87
2021/12/23 02:57:25;;;;;;;4.28;3.53;;;;;;;-1.24;100.00;101441.56;6278030;22;20004;-87
2021/12/23 02:59:51;;;;;;;4.40;4.10;;;;;;;-1.16;100.00;101450.34;6277929;22;20021;-86
2021/12/23 03:02:23;;;;;;;2.35;2.15;;;;;;;-1.26;100.00;101453.66;6277960;22;20004;-86
2021/12/23 03:05:00;;;;;;;4.47;3.00;;;;;;;-1.20;100.00;101435.53;6277975;22;20029;-87
2021/12/23 03:07:32;;;;;;;3.28;3.08;;;;;;;-1.22;100.00;101425.94;6277065;22;20065;-87
2021/12/23 03:09:57;;;;;;;3.35;3.15;;;;;;;-1.31;100.00;101423.22;6277530;22;20134;-87
2021/12/23 03:12:37;;;;;;;2.25;2.15;;;;;;;-1.21;100.00;101438.97;6277569;22;20440;-86
2021/12/23 03:15:18;;;;;;;3.63;3.38;;;;;;;-1.25;100.00;101431.09;6277398;22;20000;-88
2021/12/23 03:17:44;;;;;;;2.78;2.55;;;;;;;-1.21;100.00;101438.97;6277305;22;20022;-87
2021/12/23 03:20:10;;;;;;;3.67;3.47;;;;;;;-1.15;100.00;101433.84;6277696;22;20031;-86
2021/12/23 03:22:43;;;;;;;3.25;3.05;;;;;;;-1.20;100.00;101426.84;6277477;22;20008;-86
2021/12/23 03:25:21;;;;;;;4.63;3.08;;;;;;;-1.17;100.00;101425.16;6277213;22;20004;-86
2021/12/23 03:27:46;;;;;;;3.15;2.95;;;;;;;-1.26;100.00;101411.13;6277316;22;20082;-86
2021/12/23 03:30:14;;;;;;;3.00;2.80;;;;;;;-1.24;100.00;101388.56;6277425;22;20023;-85
2021/12/23 03:32:43;;;;;;;3.83;3.53;;;;;;;-1.28;100.00;101384.16;6276773;22;20114;-86
2021/12/23 03:35:08;;;;;;;4.55;4.25;;;;;;;-1.33;100.00;101386.72;6276720;22;20004;-86
2021/12/23 03:37:34;;;;;;;4.10;3.85;;;;;;;-1.31;100.00;101387.63;6275584;22;20335;-86
2021/12/23 03:39:59;;;;;;;4.32;4.03;;;;;;;-1.27;100.00;101391.13;6277173;22;20006;-86
2021/12/23 03:42:24;;;;;;;3.53;3.33;;;;;;;-1.22;100.00;101398.16;6276687;22;20095;-86
2021/12/23 03:44:51;;;;;;;4.15;3.85;;;;;;;-1.24;100.00;101381.63;6277039;22;20667;-86
2021/12/23 03:47:16;;;;;;;3.42;3.22;;;;;;;-1.13;100.00;101386.97;6277471;22;20004;-86
2021/12/23 03:49:42;;;;;;;2.97;2.83;;;;;;;-1.27;100.00;101368.56;6277043;22;20038;-86
2021/12/23 03:52:07;;;;;;;3.08;2.90;;;;;;;-1.24;100.00;101372.91;6276329;22;20035;-86
2021/12/23 03:54:32;;;;;;;2.42;2.30;;;;;;;-1.25;100.00;101369.47;6277140;22;20438;-86
2021/12/23 03:56:58;;;;;;;3.80;3.50;;;;;;;-1.14;100.00;101374.81;6276908;22;20519;-86
2021/12/23 03:59:23;;;;;;;3.55;3.25;;;;;;;-1.19;100.00;101372.13;6277071;22;20170;-86
2021/12/23 04:01:49;;;;;;;2.97;2.83;;;;;;;-1.18;100.00;101399.09;6277092;22;20003;-86
2021/12/23 04:04:14;;;;;;;3.60;3.40;;;;;;;-1.09;100.00;101389.66;6277205;22;20078;-86
2021/12/23 04:06:40;;;;;;;3.55;3.35;;;;;;;-1.07;100.00;101387.06;6277438;22;20148;-86
2021/12/23 04:09:05;;;;;;;3.83;3.63;;;;;;;-0.92;100.00;101411.59;6276681;22;20007;-86
2021/12/23 04:11:31;;;;;;;4.05;3.75;;;;;;;-1.02;100.00;101412.31;6277597;22;19999;-86
2021/12/23 04:13:56;;;;;;;4.32;4.03;;;;;;;-0.92;100.00;101401.16;6277406;22;20454;-86
2021/12/23 04:16:21;;;;;;;2.50;2.40;;;;;;;-0.94;100.00;101405.47;6276653;22;20007;-86
2021/12/23 04:18:50;;;;;;;4.53;4.22;;;;;;;-0.94;100.00;101396.78;6276514;22;20379;-87
2021/12/23 04:21:16;;;;;;;3.05;2.88;;;;;;;-0.91;100.00;101397.69;6277452;22;20007;-87
2021/12/23 04:23:41;;;;;;;3.25;3.05;;;;;;;-0.97;100.00;101381.09;6277302;22;20011;-87
2021/12/23 04:26:09;;;;;;;3.30;3.03;;;;;;;-1.01;100.00;101372.34;6277194;22;20119;-87
2021/12/23 04:28:44;;;;;;;3.63;3.42;;;;;;;-0.92;100.00;101385.53;6278066;22;20007;-87
2021/12/23 04:31:09;;;;;;;2.85;2.65;;;;;;;-0.87;100.00;101391.69;6277366;22;20003;-86
2021/12/23 04:33:35;;;;;;;4.43;4.13;;;;;;;-0.79;100.00;101381.31;6277126;22;20057;-86
2021/12/23 04:36:00;;;;;;;4.30;4.00;;;;;;;-0.82;100.00;101392.56;6277568;22;20004;-86
2021/12/23 04:38:25;;;;;;;2.92;2.78;;;;;;;-0.85;100.00;101387.31;6278695;22;20012;-86
2021/12/23 04:40:51;;;;;;;3.03;2.80;;;;;;;-0.71;100.00;101375.31;6279653;22;20003;-86
2021/12/23 04:43:16;;;;;;;5.50;5.10;;;;;;;-0.89;100.00;101366.41;6279608;22;20050;-86
2021/12/23 04:45:42;;;;;;;2.97;2.78;;;;;;;-0.91;100.00;101355.09;6279266;22;20075;-86
2021/12/23 04:48:07;;;;;;;4.65;4.35;;;;;;;-0.93;100.00;101342.03;6278769;22;20074;-86
2021/12/23 04:50:32;;;;;;;3.88;3.60;;;;;;;-0.87;100.00;101354.28;6278777;22;20007;-87
2021/12/23 04:52:58;;;;;;;2.85;2.58;;;;;;;-0.91;100.00;101353.38;6279349;22;20007;-86
2021/12/23 04:55:23;;;;;;;4.10;3.80;;;;;;;-0.79;100.00;101363.06;6279001;22;20004;-87
2021/12/23 04:57:48;;;;;;;5.00;4.60;;;;;;;-0.82;100.00;101358.69;6278425;22;20493;-86
2021/12/23 05:00:20;;;;;;;4.65;4.35;;;;;;;-0.88;100.00;101355.16;6278931;22;20030;-86
2021/12/23 05:02:46;;;;;;;4.80;4.50;;;;;;;-0.89;100.00;101349.06;6278878;22;20007;-86
2021/12/23 05:05:12;;;;;;;4.70;4.43;;;;;;;-0.88;100.00;101342.13;6278165;22;20000;-86
2021/12/23 05:07:37;;;;;;;2.20;2.10;;;;;;;-0.79;100.00;101350.03;6279102;22;20011;-87
2021/12/23 05:10:09;;;;;;;3.67;3.47;;;;;;;-0.87;100.00;101331.72;6279038;22;20015;-87
2021/12/23 05:12:43;;;;;;;3.42;3.13;;;;;;;-0.91;100.00;101335.13;6278574;22;20473;-87
2021/12/23 05:15:11;;;;;;;3.20;3.00;;;;;;;-0.90;100.00;101326.44;6278649;22;20000;-87
2021/12/23 05:17:37;;;;;;;2.88;2.67;;;;;;;-0.92;100.00;101320.34;6278463;22;20472;-87
2021/12/23 05:20:07;;;;;;;3.97;3.67;;;;;;;-0.91;100.00;101321.19;6278726;22;20007;-87
2021/12/23 05:22:32;;;;;;;;;;;;;;;-0.92;100.00;101320.34;6278799;22;20014;-86
2021/12/23 05:24:57;;;;;;;3.20;3.00;;;;;;;-0.79;100.00;101319.59;6279228;22;20231;-86
2021/12/23 05:27:23;;;;;;;3.00;2.80;;;;;;;-0.76;100.00;101314.44;6278291;22;19996;-86
2021/12/23 05:29:48;;;;;;;4.45;4.13;;;;;;;-0.76;100.00;101310.94;6278328;22;20010;-87
2021/12/23 05:32:13;;;;;;;4.50;4.10;;;;;;;-0.80;100.00;101302.22;6278228;22;20171;-87
2021/12/23 05:34:39;;;;;;;3.85;3.55;;;;;;;-0.79;100.00;101316.13;6279188;22;20082;-87
2021/12/23 05:37:04;;;;;;;3.08;2.88;;;;;;;-0.83;100.00;101307.41;6278738;22;20407;-86
2021/12/23 05:39:29;;;;;;;4.57;4.18;;;;;;;-0.74;100.00;101304.88;6278467;22;20014;-87
2021/12/23 05:41:55;;;;;;;4.32;4.03;;;;;;;-0.81;100.00;101307.41;6278317;22;20364;-87
2021/12/23 05:44:20;;;;;;;2.83;2.65;;;;;;;-0.69;100.00;101295.38;6278447;22;20007;-86
2021/12/23 05:46:46;;;;;;;3.70;3.45;;;;;;;-0.80;100.00;101283.06;6278221;22;20053;-87
2021/12/23 05:49:12;;;;;;;3.50;3.28;;;;;;;-0.74;100.00;101275.34;6278555;22;20064;-86
2021/12/23 05:51:38;;;;;;;4.55;4.15;;;;;;;-0.81;100.00;101283.94;6278588;22;20059;-85
2021/12/23 05:54:03;;;;;;;2.30;2.15;;;;;;;-0.75;100.00;101276.19;6289679;22;20008;-86
2021/12/23 05:56:29;;;;;;;2.47;2.38;;;;;;;-0.87;100.00;101281.28;6302505;22;19996;-86
2021/12/23 05:58:54;;;;;;;3.63;3.42;;;;;;;-0.75;100.00;101281.41;6290252;22;20011;-86
2021/12/23 06:01:19;;;;;;;4.30;3.90;;;;;;;-0.78;100.00;101278.75;6289146;22;20008;-86
2021/12/23 06:03:46;;;;;;;4.55;4.25;;;;;;;-0.78;100.00;101274.44;6280008;22;19996;-86
2021/12/23 06:06:13;;;;;;;4.82;4.53;;;;;;;-0.76;100.00;101269.22;6278662;22;20007;-86
2021/12/23 06:08:39;;;;;;;4.90;4.63;;;;;;;-0.77;100.00;101273.56;6278194;22;20010;-85
2021/12/23 06:11:05;;;;;;;2.03;1.92;;;;;;;-0.80;100.00;101251.78;6277573;22;20065;-86
2021/12/23 06:13:30;;;;;;;4.57;4.18;;;;;;;-0.81;100.00;101257.88;6278018;22;20008;-86
2021/12/23 06:16:16;;;;;;;5.82;5.25;;;;;;;-0.75;100.00;101245.78;6277499;22;20008;-86
2021/12/23 06:18:56;;;;;;;2.95;2.75;;;;;;;-0.74;100.00;101251.88;6276366;22;20092;-86
2021/12/23 06:21:26;;;;;;;4.45;4.05;;;;;;;-0.76;100.00;101258.81;6277681;22;20004;-86
2021/12/23 06:24:24;;;;;;;3.92;3.72;;;;;;;-0.80;100.00;101251.78;6280587;22;20431;-86
2021/12/23 06:26:52;;;;;;;4.35;4.05;;;;;;;-0.78;100.00;101264.00;6278775;22;20012;-87
2021/12/23 06:29:17;;;;;;;4.53;4.25;;;;;;;-0.62;100.00;101283.28;6278108;22;20010;-80
2021/12/23 06:31:42;;;;;;;3.85;3.65;;;;;;;-0.52;100.00;101265.09;6277354;22;19999;-82
2021/12/23 06:34:08;;;;;;;3.75;3.55;;;;;;;-0.64;100.00;101274.56;6275909;22;20082;-82
2021/12/23 06:36:34;;;;;;;3.15;2.95;;;;;;;-0.55;100.00;101267.69;6277075;22;20004;-83
2021/12/23 06:38:59;;;;;;;2.28;2.17;;;;;;;-0.58;100.00;101272.88;6276860;22;20073;-84
2021/12/23 06:41:24;;;;;;;2.80;2.60;;;;;;;-0.59;100.00;101267.66;6277591;22;20339;-83
2021/12/23 06:43:50;;;;;;;4.05;3.75;;;;;;;-0.51;100.00;101260.75;6277676;22;20000;-84
2021/12/23 06:46:16;;;;;;;2.97;2.78;;;;;;;-0.57;100.00;101251.13;6275047;22;20426;-83
2021/12/23 06:48:41;;;;;;;3.03;2.83;;;;;;;-0.52;100.00;101241.63;6276918;22;20126;-84
2021/12/23 06:51:07;;;;;;;3.67;3.47;;;;;;;-0.46;100.00;101238.19;6277059;22;20000;-82
2021/12/23 06:53:32;;;;;;;4.55;4.28;;;;;;;-0.48;100.00;101239.91;6277516;22;20002;-86
2021/12/23 06:56:00;;;;;;;5.07;4.75;;;;;;;-0.49;100.00;101222.53;6277606;22;20007;-85
2021/12/23 06:58:26;;;;;;;3.00;2.80;;;;;;;-0.52;100.00;101222.50;6277011;22;20078;-83
2021/12/23 07:00:52;;;;;;;7.25;2.38;;;;;;;-0.31;100.00;101218.31;6277572;22;20019;-82
2021/12/23 07:03:18;;;;;;;2.90;2.70;;;;;;;-0.42;100.00;101217.38;6276879;22;19996;-85
2021/12/23 07:05:44;;;;;;;3.28;3.08;;;;;;;-0.42;100.00;101232.13;6277474;22;19999;-84
2021/12/23 07:08:25;;;;;;;3.53;3.28;;;;;;;-0.35;100.00;101226.97;6277288;22;20006;-84
2021/12/23 07:10:51;;;;;;;3.60;3.40;;;;;;;-0.44;100.00;101226.06;6277579;22;19996;-85
2021/12/23 07:13:16;;;;;;;5.20;4.80;;;;;;;-0.43;100.00;101227.78;6277697;22;20069;-85
2021/12/23 07:15:42;;;;;;;2.22;2.13;;;;;;;-0.51;100.00;101232.06;6277210;22;20086;-85
2021/12/23 07:18:07;;;;;;;4.50;4.30;;;;;;;-0.45;100.00;101246.03;6276660;22;20073;-85
2021/12/23 07:20:33;;;;;;;3.92;3.65;;;;;;;-0.46;100.00;101251.25;6277569;22;19999;-84
2021/12/23 07:22:58;;;;;;;2.50;2.30;;;;;;;-0.46;100.00;101238.19;6276641;22;20023;-85
2021/12/23 07:25:24;;;;;;;3.05;2.85;;;;;;;-0.33;100.00;101246.13;6276384;22;20439;-84
2021/12/23 07:27:49;;;;;;;2.85;2.65;;;;;;;-0.41;100.00;101247.81;6277261;22;20020;-85
2021/12/23 07:30:18;;;;;;;3.60;3.38;;;;;;;-0.35;100.00;101240.00;6277310;22;20014;-83
2021/12/23 07:32:44;;;;;;;2.08;1.98;;;;;;;-0.19;100.00;101254.06;6276719;22;20008;-82
2021/12/23 07:35:10;;;;;;;3.17;2.97;;;;;;;-0.28;100.00;101254.88;6275486;22;20030;-84
2021/12/23 07:37:36;;;;;;;3.58;3.33;;;;;;;-0.25;100.00;101254.88;6277217;22;20057;-85
2021/12/23 07:40:03;;;;;;;2.47;2.38;;;;;;;-0.32;100.00;101250.50;6276001;22;20355;-83
2021/12/23 07:42:31;;;;;;;3.72;3.42;;;;;;;-0.32;100.00;101245.28;6274327;22;20018;-85
2021/12/23 07:44:57;;;;;;;5.05;4.72;;;;;;;-0.32;100.00;101247.91;6276448;22;20019;-84
2021/12/23 07:47:23;;;;;;;4.63;4.32;;;;;;;-0.29;100.00;101234.88;6275886;22;20055;-84
2021/12/23 07:49:48;;;;;;;6.20;5.80;;;;;;;-0.13;100.00;101223.63;6276119;22;20003;-85
2021/12/23 07:52:14;;;;;;;2.42;2.33;;;;;;;-0.26;100.00;101211.41;6276970;22;20004;-85
2021/12/23 07:54:39;;;;;;;4.35;4.05;;;;;;;-0.26;100.00;101205.28;6276597;22;20003;-84
2021/12/23 07:57:05;;;;;;;2.78;2.58;;;;;;;-0.21;100.00;101220.13;6276802;22;20000;-83
2021/12/23 07:59:31;;;;;;;3.33;3.15;;;;;;;-0.28;100.00;101212.22;6276882;22;20370;-84
2021/12/23 08:01:57;;;;;;;2.88;2.67;;;;;;;-0.31;100.00;101205.25;6277371;22;20010;-87
2021/12/23 08:04:22;;;;;;;3.63;3.38;;;;;;;-0.31;100.00;101223.53;6277879;22;20069;-83
2021/12/23 08:06:54;;;;;;;2.90;2.70;;;;;;;-0.31;100.00;101210.50;6276789;22;20068;-84
2021/12/23 08:09:19;;;;;;;3.63;3.42;;;;;;;-0.14;100.00;101203.63;6280482;22;20004;-83
2021/12/23 08:11:45;;;;;;;3.30;3.10;;;;;;;-0.30;100.00;101193.94;6279232;22;20045;-82
2021/12/23 08:14:10;;;;;;;6.53;3.75;;;;;;;-0.27;100.00;101196.59;6278101;22;20007;-84
2021/12/23 08:16:35;;;;;;;2.85;2.72;;;;;;;-0.21;100.00;101196.66;6279250;22;20000;-82
2021/12/23 08:19:01;;;;;;;2.33;2.20;;;;;;;-0.22;100.00;101197.50;6244169;23;20043;-83
2021/12/23 08:21:28;;;;;;;4.07;2.83;;;;;;;-0.15;100.00;101195.78;6246051;23;20000;-86
2021/12/23 08:23:53;;;;;;;3.35;3.15;;;;;;;-0.22;100.00;101189.66;6245947;23;20004;-84
2021/12/23 08:26:22;;;;;;;3.10;2.80;;;;;;;-0.18;100.00;101188.84;6245106;23;20079;-82
2021/12/23 08:28:47;;;;;;;2.95;2.75;;;;;;;-0.24;100.00;101178.31;6245587;23;20001;-83
2021/12/23 08:31:13;;;;;;;3.05;2.85;;;;;;;-0.23;100.00;101181.81;6247676;23;20007;-88
2021/12/23 08:33:38;;;;;;;4.60;4.30;;;;;;;-0.19;100.00;101165.34;6252533;22;20018;-86
2021/12/23 08:36:04;;;;;;;4.63;4.22;;;;;;;-0.18;100.00;101162.72;6245700;23;20443;-85
2021/12/23 08:38:29;;;;;;;3.13;2.92;;;;;;;-0.13;100.00;101166.22;6247449;23;20055;-85
2021/12/23 08:40:56;;;;;;;3.30;3.10;;;;;;;-0.15;100.00;101162.75;6245227;23;20003;-86
2021/12/23 08:43:22;;;;;;;3.15;2.97;;;;;;;-0.09;100.00;101151.44;6247672;22;20071;-86
2021/12/23 08:45:47;;;;;;;5.97;5.57;;;;;;;-0.04;100.00;101145.41;6245848;23;20007;-89
2021/12/23 08:48:12;;;;;;;4.05;3.72;;;;;;;-0.04;100.00;101136.69;6246030;23;20004;-90
2021/12/23 08:50:38;;;;;;;2.47;2.38;;;;;;;-0.05;100.00;101135.81;6248149;23;19996;-85
2021/12/23 08:53:03;;;;;;;2.60;2.50;;;;;;;-0.01;100.00;101139.31;6246018;23;20027;-88
2021/12/23 08:55:31;;;;;;;4.22;3.97;;;;;;;0.12;100.00;101135.91;6246446;23;20405;-89
2021/12/23 08:57:59;;;;;;;2.88;2.67;;;;;;;0.05;100.00;101133.25;6246301;23;20368;-88
2021/12/23 09:00:26;;;;;;;2.90;2.70;;;;;;;0.04;100.00;101127.16;6246106;23;20008;-87
2021/12/23 09:02:52;;;;;;;3.20;2.95;;;;;;;0.15;100.00;101112.41;6246352;23;20050;-84
2021/12/23 09:05:19;;;;;;;5.35;2.97;;;;;;;0.09;100.00;101114.13;6245493;23;20038;-84
2021/12/23 09:07:45;;;;;;;7.75;4.53;;;;;;;0.03;100.00;101108.88;6246866;23;20024;-84
2021/12/23 09:10:11;;;;;;;4.68;4.40;;;;;;;0.21;100.00;101096.75;6245002;23;20016;-85
2021/12/23 09:12:37;;;;;;;7.15;4.10;;;;;;;0.14;100.00;101081.06;6245624;23;20004;-85
2021/12/23 09:15:03;;;;;;;3.53;3.33;;;;;;;0.16;100.00;101085.41;6245186;23;20095;-89
2021/12/23 09:17:29;;;;;;;5.38;5.03;;;;;;;0.19;100.00;101076.72;6256604;22;20008;-95
2021/12/23 09:19:54;;;;;;;4.65;4.25;;;;;;;0.19;100.00;101074.13;6277043;22;20012;-92
2021/12/23 09:22:20;;;;;;;3.92;3.63;;;;;;;0.30;100.00;101088.94;6279270;22;20336;-94
2021/12/23 09:24:47;;;;;;;4.05;3.63;;;;;;;0.47;100.00;101086.38;6279634;22;20156;-87
2021/12/23 09:27:36;;;;;;;3.50;3.30;;;;;;;0.35;100.00;101086.34;6278841;22;20018;-87
2021/12/23 09:32:53;;;;;;;3.25;3.03;;;;;;;0.45;100.00;101094.22;6277661;22;20015;-86
2021/12/23 09:35:25;;;;;;;5.13;3.55;;;;;;;0.51;100.00;101099.44;6278556;22;20019;-86
2021/12/23 09:37:51;;;;;;;3.63;3.35;;;;;;;0.53;100.00;101088.97;6278136;22;20466;-85
2021/12/23 09:40:18;;;;;;;2.00;1.90;;;;;;;0.64;100.00;101084.66;6278218;22;20007;-85
2021/12/23 09:42:46;;;;;;;2.83;2.70;;;;;;;0.69;100.00;101075.06;6277512;22;20031;-83
2021/12/23 09:45:14;;;;;;;2.55;2.45;;;;;;;0.77;100.00;101073.34;6277115;22;20024;-81
2021/12/23 09:47:41;;;;;;;3.17;2.97;;;;;;;0.74;100.00;101060.28;6277903;22;20058;-82
2021/12/23 09:50:10;;;;;;;3.95;3.53;;;;;;;0.72;100.00;101062.00;6277153;22;20026;-82
2021/12/23 09:52:41;;;;;;;1.20;1.20;;;;;;;0.87;100.00;101059.38;6278096;22;20006;-81
2021/12/23 09:55:07;;;;;;;2.40;2.30;;;;;;;0.83;100.00;101063.75;6277610;22;20011;-89
2021/12/23 09:57:32;;;;;;;5.22;4.18;;;;;;;0.91;100.00;101064.63;6277788;22;20003;-81
2021/12/23 09:59:59;;;;;;;3.97;3.75;;;;;;;0.89;100.00;101066.38;6276852;22;20003;-82
2021/12/23 10:02:25;;;;;;;2.15;2.05;;;;;;;0.94;100.00;101054.16;6277757;22;20000;-85
2021/12/23 10:05:00;;;;;;;6.95;3.50;;;;;;;1.07;100.00;101060.25;6275734;22;20015;-86
2021/12/23 10:07:25;;;;;;;4.00;3.70;;;;;;;1.00;100.00;101059.41;6278352;22;20407;-85
2021/12/23 10:10:03;;;;;;;4.07;3.15;;;;;;;0.95;100.00;101061.13;6276915;22;20010;-83
2021/12/23 10:32:14;;;;;;;2.65;2.10;;;;;;;1.21;100.00;101016.66;6277780;22;20034;-84
2021/12/23 10:37:18;;;;;;;2.03;1.92;;;;;;;1.43;100.00;101020.94;6281343;22;20011;-83
2021/12/23 10:39:53;;;;;;;2.60;2.40;;;;;;;1.55;100.00;101023.50;6280967;22;20031;-82
2021/12/23 10:42:24;;;;;;;1.77;1.67;;;;;;;1.48;100.00;101019.19;6276238;22;20014;-84
2021/12/23 10:44:53;;;;;;;2.25;2.13;;;;;;;1.69;100.00;101021.72;6276418;22;20003;-82
2021/12/23 10:47:46;;;;;;;2.80;2.63;;;;;;;1.59;100.00;101002.56;6276646;22;20447;-82
2021/12/23 10:50:34;;;;;;;2.55;2.35;;;;;;;1.72;100.00;100998.13;6276688;22;20004;-84
2021/12/23 10:53:07;;;;;;;2.83;2.63;;;;;;;2.10;100.00;100995.31;6276741;22;20003;-84
2021/12/23 10:58:18;;;;;;;2.20;2.08;;;;;;;1.90;100.00;101010.28;6276166;22;20114;-82
2021/12/23 11:00:49;;;;;;;2.45;2.35;;;;;;;1.96;100.00;101008.50;6277056;22;20000;-88
2021/12/23 11:03:27;;;;;;;2.35;2.22;;;;;;;1.95;100.00;101009.38;6276166;22;20004;-85
2021/12/23 11:06:25;;;;;;;2.90;2.70;;;;;;;1.87;100.00;101020.78;6277277;22;20007;-89
2021/12/23 11:09:00;;;;;;;4.68;3.63;;;;;;;1.94;100.00;101012.03;6277325;22;20000;-89
2021/12/23 11:43:54;;;;;;;2.22;2.13;;;;;;;2.93;100.00;100898.50;6280268;22;20063;-86
2021/12/23 11:46:25;;;;;;;4.40;3.25;;;;;;;2.94;100.00;100898.50;6281060;22;20448;-91
2021/12/23 11:48:53;;;;;;;2.03;1.92;;;;;;;3.06;100.00;100887.84;6282824;22;20008;-91
2021/12/23 11:53:55;;;;;;;2.05;1.95;;;;;;;3.21;100.00;100883.28;6288735;22;20204;-91
2021/12/23 11:56:22;;;;;;;2.25;2.15;;;;;;;3.11;100.00;100869.41;6279608;22;20008;-85
2021/12/23 11:58:49;;;;;;;2.55;2.35;;;;;;;3.01;100.00;100865.16;6277851;22;20367;-84
2021/12/23 12:01:20;;;;;;;2.10;2.00;;;;;;;3.04;100.00;100862.53;6276700;22;20461;-84
2021/12/23 12:04:02;;;;;;;3.33;3.10;;;;;;;2.94;100.00;100853.91;6277741;22;20043;-88
2021/12/23 12:06:38;;;;;;;1.75;1.65;;;;;;;2.99;100.00;100838.94;6279439;22;20003;-87
2021/12/23 12:09:19;;;;;;;1.95;1.85;;;;;;;2.98;100.00;100841.59;6272959;22;20054;-83
2021/12/23 12:12:06;;;;;;;2.22;2.13;;;;;;;2.86;100.00;100836.50;6280497;22;20007;-84
2021/12/23 12:14:43;;;;;;;2.47;1.98;;;;;;;2.93;100.00;100838.19;6277634;22;20289;-82
2021/12/23 12:17:26;;;;;;;2.10;2.00;;;;;;;2.86;100.00;100829.50;6273437;22;20431;-84
2021/12/23 12:20:22;;;;;;;3.97;3.13;;;;;;;2.78;100.00;100830.47;6274907;22;20012;-86
2021/12/23 12:22:48;;;;;;;2.53;2.33;;;;;;;3.04;100.00;100815.31;6291520;22;20079;-93
2021/12/23 12:25:23;;;;;;;2.20;1.88;;;;;;;3.05;100.00;100812.66;6274650;22;20004;-91
2021/12/23 12:28:00;;;;;;;1.35;1.25;;;;;;;3.09;100.00;100819.59;6276464;22;20479;-90
2021/12/23 12:30:52;;;;;;;2.30;2.20;;;;;;;3.17;100.00;100819.47;6277835;22;20003;-84
2021/12/23 12:33:27;;;;;;;3.67;1.63;;;;;;;3.09;100.00;100809.09;6279163;22;20027;-85
2021/12/23 12:36:24;;;;;;;1.80;1.65;;;;;;;3.41;100.00;100810.41;6277401;22;20004;-85
2021/12/23 12:39:08;;;;;;;2.47;2.28;;;;;;;3.52;100.00;100824.25;6278556;22;20091;-92
2021/12/23 12:41:36;;;;;;;2.42;2.22;;;;;;;3.86;100.00;100825.50;6280489;22;20011;-88
2021/12/23 12:44:10;;;;;;;1.70;1.60;;;;;;;3.80;100.00;100810.69;6276874;22;20083;-85
2021/12/23 12:46:39;;;;;;;2.17;1.98;;;;;;;3.66;100.00;100820.53;6267982;22;20007;-88
2021/12/23 12:49:28;;;;;;;4.28;3.88;;;;;;;3.71;100.00;100823.97;6277042;22;20007;-87
2021/12/23 12:52:20;;;;;;;2.42;2.28;;;;;;;3.62;100.00;100818.84;6275781;22;20435;-88
2021/12/23 12:54:58;;;;;;;2.13;2.03;;;;;;;3.65;100.00;100828.44;6279683;22;19999;-88
2021/12/23 12:57:32;;;;;;;1.58;1.48;;;;;;;3.71;100.00;100825.72;6277876;22;20064;-88
2021/12/23 13:00:27;;;;;;;4.00;3.17;;;;;;;3.61;100.00;100816.25;6277315;22;20034;-88
2021/12/23 13:03:05;;;;;;;2.47;2.28;;;;;;;3.61;100.00;100803.13;6280349;22;20026;-88
2021/12/23 13:05:53;;;;;;;1.10;1.10;;;;;;;3.73;100.00;100805.56;6281048;22;20000;-89
2021/12/23 13:08:32;;;;;;;1.00;1.00;;;;;;;3.89;100.00;100804.44;6279062;22;20043;-88
2021/12/23 13:11:07;;;;;;;2.20;2.08;;;;;;;4.21;100.00;100800.34;6243749;22;20008;-90
2021/12/23 13:13:42;;;;;;;2.88;2.67;;;;;;;4.09;100.00;100802.31;6281514;22;20065;-89
2021/12/23 13:16:13;;;;;;;2.40;1.73;;;;;;;4.25;100.00;100796.78;6283582;22;20004;-88
2021/12/23 13:18:38;;;;;;;3.30;3.00;;;;;;;4.15;100.00;100789.06;6270940;22;20044;-89
2021/12/23 13:21:08;;;;;;;2.38;2.20;;;;;;;4.06;100.00;100795.38;6277623;22;20020;-88
2021/12/23 13:23:43;;;;;;;2.08;1.90;;;;;;;3.92;100.00;100804.38;6278822;22;20056;-89
2021/12/23 13:26:17;;;;;;;1.42;1.33;;;;;;;3.79;100.00;100808.97;6288581;22;20033;-89
2021/12/23 13:28:48;;;;;;;2.13;1.92;;;;;;;3.72;100.00;100809.94;6309226;22;20007;-89
2021/12/23 13:31:16;;;;;;;2.15;1.60;;;;;;;3.82;100.00;100801.03;6309772;22;19999;-89
2021/12/23 13:33:49;;;;;;;2.25;2.15;;;;;;;3.67;100.00;100803.03;6309316;22;20007;-89
2021/12/23 13:36:28;;;;;;;2.47;2.28;;;;;;;3.62;100.00;100792.59;6308511;22;20007;-89
2021/12/23 13:39:16;;;;;;;1.42;1.38;;;;;;;3.61;100.00;100797.88;6281989;22;20019;-89
2021/12/23 13:41:50;;;;;;;2.30;2.20;;;;;;;3.64;100.00;100793.41;6310897;22;20003;-88
2021/12/23 13:44:15;;;;;;;2.25;2.15;;;;;;;3.76;100.00;100795.88;6309289;22;20011;-89
2021/12/23 13:46:53;;;;;;;1.65;1.55;;;;;;;3.90;100.00;100787.75;6309898;22;20007;-88
2021/12/23 13:49:19;;;;;;;1.55;1.45;;;;;;;3.92;100.00;100784.22;6308766;22;20377;-89
2021/12/23 13:51:48;;;;;;;1.75;1.65;;;;;;;3.98;100.00;100783.25;6310062;22;19999;-89
2021/12/23 13:54:16;;;;;;;4.35;2.35;;;;;;;4.05;100.00;100766.50;6308907;22;20006;-88
2021/12/23 13:56:49;;;;;;;3.28;3.08;;;;;;;4.05;100.00;100748.94;6310567;22;20399;-88
2021/12/23 13:59:24;;;;;;;2.22;2.13;;;;;;;3.99;100.00;100758.69;6309311;22;20007;-88
2021/12/23 14:01:51;;;;;;;4.20;3.60;;;;;;;4.00;100.00;100781.47;6310939;22;20086;-88
2021/12/23 14:04:38;;;;;;;1.60;1.50;;;;;;;3.84;100.00;100778.22;6310216;22;19995;-88
2021/12/23 14:07:14;;;;;;;2.47;2.38;;;;;;;3.77;100.00;100786.22;6309327;22;20007;-88
2021/12/23 14:09:46;;;;;;;1.58;1.48;;;;;;;3.74;100.00;100779.25;6308382;22;20003;-89
2021/12/23 14:12:14;;;;;;;3.60;3.40;;;;;;;3.75;100.00;100785.41;6309697;22;19999;-89
2021/12/23 14:14:58;;;;;;;3.40;3.17;;;;;;;3.75;100.00;100777.50;6309495;22;20014;-89
2021/12/23 14:17:27;;;;;;;4.07;3.20;;;;;;;3.66;100.00;100785.50;6308484;22;20074;-89
2021/12/23 14:23:12;;;;;;;3.10;2.50;;;;;;;3.65;100.00;100770.66;6309762;22;20030;-89
2021/12/23 14:25:47;;;;;;;3.00;2.80;;;;;;;3.70;100.00;100769.72;6309835;22;20015;-89
2021/12/23 14:28:14;;;;;;;3.58;3.28;;;;;;;3.70;100.00;100781.97;6309493;22;20081;-88
2021/12/23 14:30:53;;;;;;;2.67;2.10;;;;;;;3.68;100.00;100794.25;6310032;22;20043;-88
2021/12/23 14:33:22;;;;;;;3.78;3.47;;;;;;;3.71;100.00;100787.19;6310984;22;20014;-88
2021/12/23 14:36:04;;;;;;;2.17;2.08;;;;;;;3.66;100.00;100777.63;6308964;22;19999;-88
2021/12/23 14:38:37;;;;;;;1.98;1.88;;;;;;;3.75;100.00;100770.47;6308399;22;20007;-88
2021/12/23 14:41:07;;;;;;;1.27;1.20;;;;;;;3.83;100.00;100770.38;6307418;22;20019;-88
2021/12/23 14:43:53;;;;;;;1.02;1.00;;;;;;;3.85;100.00;100781.72;6307961;22;20003;-87
2021/12/23 14:46:30;;;;;;;3.28;3.08;;;;;;;3.76;100.00;100758.22;6308182;22;20019;-88
2021/12/23 14:51:38;;;;;;;3.10;2.90;;;;;;;3.72;100.00;100775.78;6319836;22;20014;-87
2021/12/23 14:54:16;;;;;;;2.17;2.03;;;;;;;3.81;100.00;100787.91;6309705;22;20075;-87
2021/12/23 14:56:48;;;;;;;2.63;2.50;;;;;;;3.71;100.00;100786.31;6316342;22;19999;-88
2021/12/23 14:59:16;;;;;;;1.48;1.38;;;;;;;3.73;100.00;100797.69;6310143;22;20084;-87